Time;durP1;ratioP1;P1;durP2;ratioP2;P2;SDS_P1;SDS_P2;PMS_P1;PMS_P2;Temp;Humidity;BMP_temperature;BMP_pressure;BME280_temperature;BME280_humidity;BME280_pressure;Samples;Min_cycle;Max_cycle;Signal;HPM_P1;HPM_P2
2022/07/04 00:00:45;;;;;;;3.20;2.33;;;;;;;19.45;100.00;99022.59;4414331;32;20357;-73
2022/07/04 00:03:11;;;;;;;2.65;2.45;;;;;;;19.29;100.00;99018.56;4416119;32;20080;-72
2022/07/04 00:05:38;;;;;;;4.45;2.72;;;;;;;19.30;100.00;99014.75;4415450;32;20043;-73
2022/07/04 00:08:04;;;;;;;4.37;3.17;;;;;;;19.43;100.00;99019.34;4415413;32;20034;-73
2022/07/04 00:10:31;;;;;;;7.18;3.03;;;;;;;19.43;100.00;99013.88;4413981;32;20051;-72
2022/07/04 00:12:58;;;;;;;5.22;2.83;;;;;;;19.48;100.00;99021.97;4417112;32;20054;-73
2022/07/04 00:15:24;;;;;;;3.50;3.20;;;;;;;19.34;100.00;99013.03;4416993;32;20402;-73
2022/07/04 00:17:51;;;;;;;4.95;3.00;;;;;;;19.41;100.00;99010.66;4402094;32;20470;-72
2022/07/04 00:20:18;;;;;;;2.95;2.60;;;;;;;19.36;100.00;99008.06;4406518;32;20046;-73
2022/07/04 00:22:44;;;;;;;6.80;3.20;;;;;;;19.37;100.00;99005.03;4425666;32;20093;-72
2022/07/04 00:25:11;;;;;;;3.22;2.95;;;;;;;19.59;100.00;99006.97;4423621;32;20125;-72
2022/07/04 00:27:37;;;;;;;2.92;2.72;;;;;;;19.51;100.00;99009.63;4426394;32;20460;-73
2022/07/04 00:30:04;;;;;;;6.00;2.85;;;;;;;19.46;100.00;98999.62;4411741;32;20396;-73
2022/07/04 00:32:31;;;;;;;3.20;2.87;;;;;;;19.46;100.00;99012.47;4424199;32;20097;-72
2022/07/04 00:34:58;;;;;;;2.75;2.65;;;;;;;19.47;100.00;99008.63;4415513;32;20076;-72
2022/07/04 00:37:24;;;;;;;3.42;3.00;;;;;;;19.50;100.00;99014.28;4416929;32;20060;-72
2022/07/04 00:39:50;;;;;;;4.37;2.72;;;;;;;19.50;100.00;99000.63;4417886;32;20050;-72
2022/07/04 00:42:17;;;;;;;3.10;2.87;;;;;;;19.12;100.00;98945.56;4402561;32;20074;-73
2022/07/04 00:44:43;;;;;;;3.35;3.05;;;;;;;19.35;100.00;98998.25;4417564;32;20102;-72
2022/07/04 00:47:09;;;;;;;10.18;3.67;;;;;;;19.26;100.00;99002.81;4417545;32;20076;-72
2022/07/04 00:49:36;;;;;;;4.25;2.58;;;;;;;18.86;100.00;98952.41;4417060;32;20099;-72
2022/07/04 00:52:03;;;;;;;3.60;3.30;;;;;;;19.09;100.00;98987.91;4415946;32;20046;-73
2022/07/04 00:54:31;;;;;;;5.20;3.58;;;;;;;19.15;100.00;98992.16;4417587;32;20923;-73
2022/07/04 00:56:59;;;;;;;4.78;3.08;;;;;;;19.18;100.00;98998.91;4417369;32;20034;-72
2022/07/04 00:59:27;;;;;;;8.63;4.00;;;;;;;19.08;100.00;98997.19;4403642;32;20150;-73
2022/07/04 01:01:54;;;;;;;3.47;3.17;;;;;;;18.85;100.00;98988.97;4417549;32;20072;-73
2022/07/04 01:04:20;;;;;;;5.78;3.25;;;;;;;18.96;100.00;98996.94;4416799;32;20068;-73
2022/07/04 01:06:47;;;;;;;5.35;3.55;;;;;;;18.69;100.00;98952.19;4416058;32;20139;-74
2022/07/04 01:09:19;;;;;;;4.03;3.65;;;;;;;18.95;100.00;98998.03;4404452;32;20047;-73
2022/07/04 01:11:49;;;;;;;5.05;3.90;;;;;;;19.05;100.00;98987.72;4403125;32;20072;-72
2022/07/04 01:14:15;;;;;;;3.50;3.20;;;;;;;19.00;100.00;98973.38;4414094;32;20035;-74
2022/07/04 01:16:42;;;;;;;16.87;4.15;;;;;;;19.11;100.00;98985.66;4413802;32;20030;-74
2022/07/04 01:19:08;;;;;;;7.10;3.50;;;;;;;19.17;100.00;98984.44;4417230;32;20050;-73
2022/07/04 01:21:35;;;;;;;4.05;3.28;;;;;;;19.08;100.00;98983.56;4417598;32;20072;-74
2022/07/04 01:24:01;;;;;;;6.35;4.05;;;;;;;19.07;100.00;98973.78;4415536;32;20038;-74
2022/07/04 01:26:28;;;;;;;3.55;3.22;;;;;;;18.83;100.00;98947.53;4417604;32;20083;-74
2022/07/04 01:28:55;;;;;;;4.05;3.72;;;;;;;19.20;100.00;98986.56;4417799;32;20041;-74
2022/07/04 01:31:21;;;;;;;4.07;3.30;;;;;;;18.95;100.00;98970.75;4416108;32;20346;-73
2022/07/04 01:33:48;;;;;;;5.95;3.50;;;;;;;19.03;100.00;98978.22;4417128;32;20397;-73
2022/07/04 01:36:15;;;;;;;6.43;3.37;;;;;;;19.03;100.00;98972.75;4417006;32;20034;-73
2022/07/04 01:38:41;;;;;;;5.05;3.35;;;;;;;18.94;100.00;98936.41;4401865;32;20060;-74
2022/07/04 01:41:07;;;;;;;5.78;4.00;;;;;;;19.27;100.00;98979.87;4416139;32;20054;-73
2022/07/04 01:43:35;;;;;;;6.30;3.20;;;;;;;18.95;100.00;98935.31;4417077;32;20341;-72
2022/07/04 01:46:01;;;;;;;7.22;4.00;;;;;;;19.18;100.00;98985.28;4417068;32;20062;-73
2022/07/04 01:48:28;;;;;;;3.97;3.15;;;;;;;19.29;100.00;98991.28;4417389;32;20068;-73
2022/07/04 01:50:54;;;;;;;5.00;3.53;;;;;;;19.14;100.00;98952.31;4416984;32;20470;-73
2022/07/04 01:53:20;;;;;;;6.55;3.65;;;;;;;19.30;100.00;98968.34;4415225;32;20054;-73
2022/07/04 01:55:47;;;;;;;4.03;3.22;;;;;;;19.17;100.00;98956.34;4387596;32;20104;-74
2022/07/04 01:58:13;;;;;;;5.10;3.58;;;;;;;19.21;100.00;98979.19;4410511;32;20068;-74
2022/07/04 02:03:24;;;;;;;10.77;3.65;;;;;;;19.13;100.00;98980.75;4416604;32;20047;-73
2022/07/04 02:05:51;;;;;;;4.10;3.80;;;;;;;18.99;100.00;98986.22;4416210;32;20042;-73
2022/07/04 02:08:17;;;;;;;5.15;4.00;;;;;;;18.80;100.00;98969.97;4416376;32;20077;-74
2022/07/04 02:10:44;;;;;;;5.12;3.60;;;;;;;18.60;100.00;98937.66;4414717;32;20072;-73
2022/07/04 02:13:11;;;;;;;4.05;3.65;;;;;;;18.75;100.00;98977.44;4415780;32;20068;-74
2022/07/04 02:15:39;;;;;;;4.97;4.03;;;;;;;18.36;100.00;98916.88;4416481;32;20046;-74
2022/07/04 02:18:07;;;;;;;5.55;3.47;;;;;;;18.58;100.00;98950.81;4414683;32;20491;-73
2022/07/04 02:20:35;;;;;;;4.22;3.62;;;;;;;18.76;100.00;98979.84;4416180;32;20072;-72
2022/07/04 02:23:03;;;;;;;5.07;4.00;;;;;;;18.76;100.00;98979.84;4415771;32;20083;-73
2022/07/04 02:25:29;;;;;;;4.28;3.92;;;;;;;18.68;100.00;98972.37;4408439;32;20042;-73
2022/07/04 02:27:56;;;;;;;7.97;3.28;;;;;;;18.60;100.00;98968.44;4407902;32;20112;-71
2022/07/04 02:30:23;;;;;;;5.72;4.22;;;;;;;18.47;100.00;98939.28;4413165;32;20034;-73
2022/07/04 02:32:56;;;;;;;4.03;3.72;;;;;;;18.42;100.00;98936.69;4415774;32;20763;-73
2022/07/04 02:35:23;;;;;;;5.93;3.90;;;;;;;18.43;100.00;98939.09;4415645;32;20081;-71
2022/07/04 02:37:49;;;;;;;8.05;3.62;;;;;;;18.55;100.00;98967.75;4415587;32;20083;-73
2022/07/04 02:40:15;;;;;;;7.57;4.70;;;;;;;18.37;100.00;98950.41;4414437;32;20042;-72
2022/07/04 02:42:42;;;;;;;3.95;3.60;;;;;;;18.27;100.00;98967.78;4414869;32;20038;-72
2022/07/04 02:45:08;;;;;;;3.95;3.65;;;;;;;18.37;100.00;98977.66;4415891;32;20064;-73
2022/07/04 02:47:35;;;;;;;4.10;3.80;;;;;;;18.26;100.00;98939.69;4414115;32;20046;-75
2022/07/04 02:50:03;;;;;;;4.20;3.80;;;;;;;18.39;100.00;98981.69;4415446;32;20065;-73
2022/07/04 02:52:29;;;;;;;4.87;3.87;;;;;;;18.11;100.00;98942.75;4415613;32;20162;-74
2022/07/04 02:54:56;;;;;;;4.70;4.10;;;;;;;18.24;100.00;98973.84;4415535;32;20046;-73
2022/07/04 02:57:22;;;;;;;4.03;3.65;;;;;;;18.28;100.00;98986.53;4415485;32;20034;-72
2022/07/04 02:59:49;;;;;;;6.37;3.53;;;;;;;18.18;100.00;98980.47;4415456;32;20035;-72
2022/07/04 03:02:15;;;;;;;5.15;4.12;;;;;;;18.07;100.00;98947.97;4415702;32;20046;-73
2022/07/04 03:04:42;;;;;;;4.22;3.83;;;;;;;18.43;100.00;98977.25;4414658;32;20115;-74
2022/07/04 03:07:08;;;;;;;7.70;4.35;;;;;;;18.45;100.00;98980.47;4414256;32;20047;-73
2022/07/04 03:09:35;;;;;;;9.00;4.22;;;;;;;18.29;100.00;98935.56;4415754;32;20092;-73
2022/07/04 03:12:04;;;;;;;5.03;4.53;;;;;;;18.37;100.00;98934.84;4415684;32;20031;-73
2022/07/04 03:14:30;;;;;;;5.60;3.92;;;;;;;18.41;100.00;98956.84;4409998;32;20120;-73
2022/07/04 03:16:56;;;;;;;4.22;3.83;;;;;;;18.29;100.00;98941.81;4400245;32;20465;-73
2022/07/04 03:19:23;;;;;;;6.60;4.25;;;;;;;18.00;100.00;98925.78;4400452;32;20076;-72
2022/07/04 03:21:49;;;;;;;6.07;4.68;;;;;;;18.39;100.00;98972.72;4400286;32;20494;-73
2022/07/04 03:24:16;;;;;;;6.07;4.18;;;;;;;18.48;100.00;98968.97;4398711;32;20043;-73
2022/07/04 03:26:42;;;;;;;5.15;3.83;;;;;;;18.23;100.00;98917.69;4400106;32;20121;-73
2022/07/04 03:29:08;;;;;;;4.87;4.25;;;;;;;18.54;100.00;98961.50;4398973;32;20027;-73
2022/07/04 03:31:35;;;;;;;9.63;3.67;;;;;;;18.20;100.00;98924.56;4400169;32;20060;-73
2022/07/04 03:34:01;;;;;;;6.97;4.12;;;;;;;18.66;100.00;98959.06;4400324;32;20376;-73
2022/07/04 03:36:27;;;;;;;6.75;4.00;;;;;;;18.33;100.00;98928.38;4400080;32;20111;-73
2022/07/04 03:38:54;;;;;;;6.40;3.50;;;;;;;18.59;100.00;98957.84;4398170;32;20043;-73
2022/07/04 03:41:20;;;;;;;4.03;3.67;;;;;;;18.71;100.00;98977.22;4398539;32;20039;-73
2022/07/04 03:43:47;;;;;;;8.80;3.87;;;;;;;18.94;100.00;98963.69;4399930;32;20035;-73
2022/07/04 03:46:13;;;;;;;4.53;3.72;;;;;;;18.64;100.00;98933.22;4400213;32;20072;-72
2022/07/04 03:48:42;;;;;;;6.22;3.25;;;;;;;18.70;100.00;98932.00;4403276;32;20055;-72
2022/07/04 03:51:10;;;;;;;5.32;3.72;;;;;;;18.95;100.00;98987.94;4403276;32;20042;-72
2022/07/04 03:53:37;;;;;;;6.43;3.55;;;;;;;19.10;100.00;98972.34;4403088;32;20047;-72
2022/07/04 03:56:04;;;;;;;6.45;4.22;;;;;;;19.14;100.00;98948.78;4403010;32;20076;-73
2022/07/04 03:58:30;;;;;;;5.20;3.42;;;;;;;19.55;100.00;98986.84;4401192;32;20133;-73
2022/07/04 04:00:58;;;;;;;7.30;2.90;;;;;;;19.45;100.00;98989.81;4402034;32;20064;-73
2022/07/04 04:06:09;;;;;;;4.07;3.67;;;;;;;19.36;100.00;98997.13;4402867;32;20031;-73
2022/07/04 04:08:36;;;;;;;5.70;4.05;;;;;;;19.17;100.00;98965.34;4402902;32;20043;-73
2022/07/04 04:11:03;;;;;;;3.90;3.55;;;;;;;19.52;100.00;98998.38;4401569;32;20078;-73
2022/07/04 04:13:30;;;;;;;7.65;3.58;;;;;;;19.42;100.00;99001.38;4401219;32;20064;-74
2022/07/04 04:15:56;;;;;;;6.55;3.75;;;;;;;19.34;100.00;98972.09;4402785;32;20064;-73
2022/07/04 04:18:22;;;;;;;6.28;3.47;;;;;;;19.67;100.00;99004.59;4402994;32;20042;-73
2022/07/04 04:20:49;;;;;;;4.20;3.83;;;;;;;19.40;100.00;98970.81;4402702;32;20047;-73
2022/07/04 04:23:15;;;;;;;4.05;3.65;;;;;;;19.62;100.00;98999.25;4403151;32;20031;-73
2022/07/04 04:25:41;;;;;;;7.28;4.07;;;;;;;19.58;100.00;98999.88;4401747;32;20072;-73
2022/07/04 04:28:08;;;;;;;3.97;3.62;;;;;;;19.66;100.00;99000.25;4400832;32;20104;-72
2022/07/04 04:30:34;;;;;;;6.87;4.87;;;;;;;19.70;100.00;98987.59;4402109;32;20039;-72
2022/07/04 04:33:01;;;;;;;8.70;3.72;;;;;;;19.74;100.00;99002.25;4402435;32;20046;-72
2022/07/04 04:35:27;;;;;;;4.60;3.40;;;;;;;19.70;100.00;98995.78;4402313;32;20044;-72
2022/07/04 04:37:53;;;;;;;5.50;3.33;;;;;;;19.59;100.00;98952.34;4401912;32;20388;-73
2022/07/04 04:40:20;;;;;;;11.43;3.33;;;;;;;19.63;100.00;98990.75;4389116;32;20056;-73
2022/07/04 04:42:46;;;;;;;6.55;3.62;;;;;;;19.51;100.00;98966.72;4402008;32;20064;-73
2022/07/04 04:45:12;;;;;;;3.50;3.20;;;;;;;19.89;100.00;98993.66;4400627;32;20047;-72
2022/07/04 04:47:39;;;;;;;14.93;4.28;;;;;;;20.06;100.00;98987.50;4401960;32;20039;-72
2022/07/04 04:50:10;;;;;;;5.82;3.60;;;;;;;20.26;100.00;98997.09;4402425;32;20824;-72
2022/07/04 04:52:37;;;;;;;7.77;3.37;;;;;;;20.12;100.00;98990.94;4387169;32;20035;-73
2022/07/04 04:55:04;;;;;;;4.30;3.40;;;;;;;20.49;100.00;98988.81;4406656;32;20164;-76
2022/07/04 04:57:30;;;;;;;3.08;2.65;;;;;;;20.46;100.00;98979.31;4416710;32;20064;-71
2022/07/04 04:59:58;;;;;;;5.65;4.03;;;;;;;20.57;100.00;98985.31;4415858;32;20379;-73
2022/07/04 05:02:27;;;;;;;4.22;3.45;;;;;;;20.59;100.00;98977.59;4403753;32;20023;-71
2022/07/04 05:04:53;;;;;;;5.78;3.17;;;;;;;20.36;100.00;98924.09;4403419;32;20069;-71
2022/07/04 05:07:20;;;;;;;7.85;2.87;;;;;;;20.60;100.00;98949.13;4416493;32;20042;-70
2022/07/04 05:09:46;;;;;;;7.82;3.17;;;;;;;20.40;100.00;98942.28;4417243;32;20034;-72
2022/07/04 05:12:13;;;;;;;11.15;3.42;;;;;;;20.84;100.00;98969.78;4403357;32;20395;-71
2022/07/04 05:14:39;;;;;;;7.90;2.92;;;;;;;20.90;100.00;98970.44;4413984;32;20035;-72
2022/07/04 05:17:05;;;;;;;7.75;3.00;;;;;;;21.20;100.00;98976.91;4422386;32;20030;-72
2022/07/04 05:19:32;;;;;;;7.50;2.72;;;;;;;20.77;100.00;98922.94;4432910;32;20109;-71
2022/07/04 05:21:58;;;;;;;6.95;2.70;;;;;;;20.94;100.00;98944.06;4433278;32;20071;-72
2022/07/04 05:24:24;;;;;;;5.80;3.10;;;;;;;21.41;100.00;98980.63;4432652;32;20030;-71
2022/07/04 05:26:51;;;;;;;8.63;3.33;;;;;;;21.57;100.00;98974.66;4429571;32;20122;-70
2022/07/04 05:29:18;;;;;;;10.77;2.90;;;;;;;21.66;100.00;98964.50;4428378;32;20089;-71
2022/07/04 05:31:44;;;;;;;7.82;2.60;;;;;;;21.65;100.00;98973.88;4432302;32;20034;-70
2022/07/04 05:34:10;;;;;;;4.32;3.28;;;;;;;21.78;100.00;98972.06;4417860;32;20042;-74
2022/07/04 05:36:37;;;;;;;13.23;3.15;;;;;;;21.62;100.00;98969.03;4430674;32;20034;-71
2022/07/04 05:39:03;;;;;;;12.13;3.10;;;;;;;21.68;100.00;98978.66;4418456;32;20363;-71
2022/07/04 05:41:29;;;;;;;6.28;3.17;;;;;;;21.87;100.00;98983.00;4432282;32;20116;-72
2022/07/04 05:43:56;;;;;;;6.00;3.40;;;;;;;21.99;100.00;98965.88;4418576;32;20444;-72
2022/07/04 05:46:22;;;;;;;5.68;3.70;;;;;;;22.10;100.00;98967.94;4418690;32;20022;-71
2022/07/04 05:51:46;;;;;;;2.62;2.42;;;;;;;21.92;100.00;98980.06;4442362;32;20152;-72
2022/07/04 05:54:20;;;;;;;4.53;3.00;;;;;;;21.92;100.00;98980.06;4424068;32;20068;-73
2022/07/04 05:56:46;;;;;;;3.45;3.15;;;;;;;21.34;100.00;98952.91;4412980;32;20057;-72
2022/07/04 05:59:13;;;;;;;3.05;2.85;;;;;;;21.52;100.00;98981.13;4413185;32;20426;-71
2022/07/04 06:01:39;;;;;;;3.70;3.10;;;;;;;21.63;100.00;98970.63;4413536;32;20202;-71
2022/07/04 06:04:06;;;;;;;4.25;3.30;;;;;;;21.52;100.00;98970.19;4412954;32;20038;-70
2022/07/04 06:06:34;;;;;;;8.45;3.25;;;;;;;21.65;100.00;98976.59;4410856;32;20126;-75
2022/07/04 06:09:01;;;;;;;4.22;3.45;;;;;;;21.71;100.00;98967.06;4413329;32;20044;-72
2022/07/04 06:11:27;;;;;;;9.20;4.45;;;;;;;21.83;100.00;98962.88;4424421;32;20058;-71
2022/07/04 06:13:54;;;;;;;4.60;3.30;;;;;;;21.92;100.00;98971.84;4428093;32;20034;-71
2022/07/04 06:16:20;;;;;;;13.93;4.53;;;;;;;22.18;100.00;98962.72;4426988;32;20056;-72
2022/07/04 06:18:47;;;;;;;7.20;3.53;;;;;;;22.30;100.00;98960.12;4418603;32;20064;-73
2022/07/04 06:21:14;;;;;;;11.15;4.32;;;;;;;22.18;100.00;98963.56;4414609;32;20076;-73
2022/07/04 06:23:40;;;;;;;6.10;3.30;;;;;;;22.13;100.00;98953.56;4434344;32;20042;-73
2022/07/04 06:26:06;;;;;;;4.87;3.60;;;;;;;22.22;100.00;98949.97;4430221;32;20054;-73
2022/07/04 06:28:33;;;;;;;3.95;3.53;;;;;;;22.13;100.00;98950.84;4427675;32;20201;-71
2022/07/04 06:30:59;;;;;;;4.50;3.78;;;;;;;22.13;100.00;98912.44;4427861;32;20467;-72
2022/07/04 06:33:26;;;;;;;9.65;3.65;;;;;;;22.22;100.00;98948.03;4427200;32;20038;-72
2022/07/04 06:35:55;;;;;;;4.87;3.37;;;;;;;21.92;100.00;98919.78;4426445;32;20396;-72
2022/07/04 06:38:28;;;;;;;8.57;3.55;;;;;;;22.41;100.00;98966.88;4427506;32;20075;-73
2022/07/04 06:40:57;;;;;;;4.95;3.53;;;;;;;22.22;100.00;98953.53;4427824;32;20038;-71
2022/07/04 06:43:24;;;;;;;3.25;3.05;;;;;;;22.29;100.00;98953.03;4423036;32;20104;-71
2022/07/04 06:45:51;;;;;;;6.43;3.45;;;;;;;22.49;100.00;98963.25;4412616;32;20057;-71
2022/07/04 06:48:18;;;;;;;12.18;4.40;;;;;;;22.31;100.00;98929.62;4411156;32;20065;-71
2022/07/04 06:50:45;;;;;;;6.45;4.10;;;;;;;22.40;100.00;98932.34;4421493;32;20060;-71
2022/07/04 06:53:11;;;;;;;4.68;3.55;;;;;;;22.58;100.00;98970.66;4438467;32;20085;-71
2022/07/04 06:55:38;;;;;;;4.87;4.10;;;;;;;22.20;100.00;98922.09;4442345;32;20075;-73
2022/07/04 06:58:07;;;;;;;3.58;3.28;;;;;;;22.63;100.00;98973.22;4456224;32;20056;-72
2022/07/04 07:00:33;;;;;;;7.57;4.07;;;;;;;22.49;100.00;98938.56;4458750;32;20037;-72
2022/07/04 07:03:01;;;;;;;4.07;3.22;;;;;;;22.53;100.00;98937.91;4435238;32;20350;-71
2022/07/04 07:05:29;;;;;;;4.22;3.08;;;;;;;22.63;100.00;98940.28;4448433;32;20056;-70
2022/07/04 07:07:55;;;;;;;7.90;3.60;;;;;;;22.92;100.00;98975.13;4448189;32;20022;-71
2022/07/04 07:10:22;;;;;;;19.27;3.37;;;;;;;22.94;100.00;98961.06;4446804;32;20041;-72
2022/07/04 07:12:48;;;;;;;4.97;3.70;;;;;;;23.07;100.00;98962.75;4434410;32;20123;-73
2022/07/04 07:15:16;;;;;;;7.65;3.80;;;;;;;23.04;100.00;98947.75;4433731;32;20034;-72
2022/07/04 07:17:43;;;;;;;6.55;3.92;;;;;;;23.09;100.00;98968.75;4434119;32;20085;-71
2022/07/04 07:20:10;;;;;;;6.82;3.58;;;;;;;23.11;100.00;98971.97;4447169;32;20059;-70
2022/07/04 07:22:36;;;;;;;7.82;3.92;;;;;;;23.27;100.00;98969.41;4447745;32;20038;-71
2022/07/04 07:25:03;;;;;;;5.35;4.30;;;;;;;23.31;100.00;98953.06;4449113;32;20064;-74
2022/07/04 07:27:29;;;;;;;4.60;4.12;;;;;;;23.08;100.00;98933.37;4435871;32;20103;-72
2022/07/04 07:29:55;;;;;;;7.57;3.92;;;;;;;23.32;100.00;98943.69;4446886;32;20038;-72
2022/07/04 07:32:22;;;;;;;12.35;3.78;;;;;;;23.51;100.00;98963.22;4445023;32;20348;-71
2022/07/04 07:34:48;;;;;;;5.10;3.97;;;;;;;23.66;100.00;98967.28;4418980;32;20186;-71
2022/07/04 07:37:17;;;;;;;3.87;3.28;;;;;;;23.57;100.00;98956.37;4428070;32;20104;-71
2022/07/04 07:39:44;;;;;;;13.27;4.32;;;;;;;23.49;100.00;98942.72;4432081;32;20059;-71
2022/07/04 07:42:10;;;;;;;7.03;3.58;;;;;;;23.49;100.00;98921.53;4435053;32;20363;-70
2022/07/04 07:44:36;;;;;;;5.15;4.65;;;;;;;23.70;100.00;98964.66;4431835;32;20064;-71
2022/07/04 07:47:03;;;;;;;7.93;3.72;;;;;;;23.76;100.00;98957.81;4417813;32;20026;-73
2022/07/04 07:49:29;;;;;;;3.85;3.22;;;;;;;23.79;100.00;98957.13;4434512;32;20071;-75
2022/07/04 07:51:56;;;;;;;8.00;3.05;;;;;;;23.85;100.00;98958.53;4439534;32;20041;-70
2022/07/04 07:54:22;;;;;;;5.90;4.05;;;;;;;23.97;100.00;98962.47;4440235;32;20050;-72
2022/07/04 07:56:50;;;;;;;4.82;3.20;;;;;;;24.04;100.00;98947.00;4432134;32;20173;-71
2022/07/04 07:59:16;;;;;;;4.82;3.00;;;;;;;24.11;100.00;98962.97;4433105;32;20047;-71
2022/07/04 08:01:43;;;;;;;3.87;2.78;;;;;;;24.01;100.00;98971.63;4433558;32;20043;-70
2022/07/04 08:06:54;;;;;;;3.17;2.87;;;;;;;23.82;100.00;98923.47;4415836;32;20060;-71
2022/07/04 08:09:21;;;;;;;7.70;3.50;;;;;;;24.37;100.00;98959.06;4415793;32;20042;-78
2022/07/04 08:11:47;;;;;;;7.60;3.03;;;;;;;24.25;100.00;98941.41;4417103;32;20038;-73
2022/07/04 08:14:13;;;;;;;3.90;3.55;;;;;;;24.09;100.00;98937.72;4415660;32;20039;-73
2022/07/04 08:16:40;;;;;;;3.33;3.12;;;;;;;24.55;100.00;98965.94;4416516;32;20038;-73
2022/07/04 08:19:06;;;;;;;2.97;2.67;;;;;;;24.61;100.00;98967.34;4403016;32;20336;-73
2022/07/04 08:21:33;;;;;;;5.95;3.03;;;;;;;24.54;100.00;98969.84;4414484;32;20034;-73
2022/07/04 08:23:59;;;;;;;3.55;2.83;;;;;;;24.61;100.00;98969.31;4413366;32;20450;-73
2022/07/04 08:26:26;;;;;;;3.45;3.05;;;;;;;24.70;100.00;98977.44;4429231;32;20076;-73
2022/07/04 08:28:52;;;;;;;6.07;2.75;;;;;;;24.56;100.00;98934.56;4428403;32;20175;-73
2022/07/04 08:31:19;;;;;;;6.57;3.22;;;;;;;24.68;100.00;98927.44;4431309;32;20047;-72
2022/07/04 08:33:47;;;;;;;3.37;2.53;;;;;;;24.56;100.00;98939.25;4430356;32;20437;-73
2022/07/04 08:36:13;;;;;;;5.93;2.45;;;;;;;24.96;100.00;98964.09;4431097;32;20064;-73
2022/07/04 08:38:40;;;;;;;3.12;2.92;;;;;;;24.91;100.00;98945.06;4416347;32;20416;-74
2022/07/04 08:41:06;;;;;;;3.53;3.22;;;;;;;24.93;100.00;98981.31;4428675;32;20039;-74
2022/07/04 08:43:33;;;;;;;7.57;3.22;;;;;;;24.60;100.00;98952.00;4415033;32;20034;-74
2022/07/04 08:46:04;;;;;;;3.25;2.60;;;;;;;24.68;100.00;98935.69;4416693;32;20059;-73
2022/07/04 08:48:32;;;;;;;3.05;2.85;;;;;;;25.25;100.00;98964.13;4403022;32;20018;-73
2022/07/04 08:51:14;;;;;;;7.57;3.28;;;;;;;25.04;100.00;98934.00;4422729;32;20092;-73
2022/07/04 08:53:49;;;;;;;2.90;2.75;;;;;;;25.41;100.00;98973.28;4440165;32;20378;-74
2022/07/04 08:59:00;;;;;;;8.45;3.03;;;;;;;25.46;100.00;98936.41;4433515;32;20067;-73
2022/07/04 09:01:29;;;;;;;3.30;3.10;;;;;;;25.33;100.00;98922.66;4431229;32;20026;-73
2022/07/04 09:04:00;;;;;;;2.92;2.72;;;;;;;25.34;100.00;98940.03;4417219;32;20026;-73
2022/07/04 09:06:29;;;;;;;2.50;2.30;;;;;;;25.79;100.00;98969.19;4432246;32;20332;-72
2022/07/04 09:08:55;;;;;;;2.53;2.33;;;;;;;25.50;100.00;98970.38;4436427;32;20071;-73
2022/07/04 09:11:22;;;;;;;2.95;2.75;;;;;;;25.38;97.39;98985.81;4438986;32;20041;-72
2022/07/04 09:13:48;;;;;;;3.42;3.20;;;;;;;25.36;98.92;98977.09;4441653;32;20107;-74
2022/07/04 09:16:15;;;;;;;4.32;3.20;;;;;;;25.51;98.22;98949.94;4444593;32;20045;-73
2022/07/04 09:18:41;;;;;;;4.00;3.03;;;;;;;25.81;96.77;98986.19;4434446;32;20064;-73
2022/07/04 09:21:09;;;;;;;6.60;2.78;;;;;;;25.97;100.00;98977.97;4438101;32;20053;-72
2022/07/04 09:23:40;;;;;;;11.05;3.70;;;;;;;26.02;94.99;98969.44;4439533;32;20351;-73
2022/07/04 09:26:13;;;;;;;3.30;2.62;;;;;;;26.15;97.28;98972.13;4443328;32;20037;-72
2022/07/04 09:28:45;;;;;;;3.40;2.83;;;;;;;26.39;97.93;98971.94;4418569;32;20056;-72
2022/07/04 09:31:18;;;;;;;;;;;;;;;25.76;97.88;98922.25;4432883;32;20071;-72
2022/07/04 09:33:46;;;;;;;3.03;2.80;;;;;;;26.16;97.83;98976.47;4435921;32;19937;-73
2022/07/04 09:36:14;;;;;;;3.85;3.05;;;;;;;26.32;98.69;98977.28;4428407;32;20109;-72
2022/07/04 09:38:40;;;;;;;9.40;3.10;;;;;;;26.45;96.35;98981.56;4429539;32;20072;-72
2022/07/04 09:41:25;;;;;;;4.25;2.97;;;;;;;26.19;97.79;98975.78;4430143;32;20079;-73
2022/07/04 09:43:59;;;;;;;3.00;2.80;;;;;;;26.42;98.58;98982.28;4430454;32;20203;-72
2022/07/04 09:46:26;;;;;;;9.98;3.17;;;;;;;26.14;97.52;98927.19;4429346;32;20055;-72
2022/07/04 09:48:52;;;;;;;7.12;3.45;;;;;;;26.65;100.00;98967.84;4428696;32;20025;-74
2022/07/04 09:51:39;;;;;;;3.60;3.20;;;;;;;26.42;95.62;98949.16;4429696;32;20089;-73
2022/07/04 09:54:19;;;;;;;3.10;2.90;;;;;;;26.60;97.63;98976.38;4444545;32;20038;-72
2022/07/04 09:56:49;;;;;;;3.83;2.95;;;;;;;26.15;94.13;98936.25;4443887;32;20060;-74
2022/07/04 09:59:15;;;;;;;2.92;2.72;;;;;;;26.25;94.40;98971.59;4445175;32;20060;-72
2022/07/04 10:01:42;;;;;;;2.85;2.65;;;;;;;26.29;98.15;98939.34;4435846;32;20889;-71
2022/07/04 10:04:09;;;;;;;5.15;2.75;;;;;;;26.43;96.46;98961.00;4436553;32;20062;-72
2022/07/04 10:06:38;;;;;;;11.65;3.10;;;;;;;26.34;95.35;98963.91;4430098;32;20049;-74
2022/07/04 10:09:10;;;;;;;5.20;3.05;;;;;;;26.15;93.01;98966.59;4430393;32;20030;-71
2022/07/04 10:11:38;;;;;;;6.43;3.45;;;;;;;26.34;90.51;98963.13;4430856;32;20437;-75
2022/07/04 10:14:07;;;;;;;5.97;2.70;;;;;;;26.48;92.90;98968.19;4430212;32;20026;-76
2022/07/04 10:16:33;;;;;;;6.55;2.87;;;;;;;26.33;91.96;98967.84;4431397;32;20071;-72
2022/07/04 10:19:01;;;;;;;9.48;3.17;;;;;;;26.17;91.93;98936.72;4417717;32;20060;-73
2022/07/04 10:21:29;;;;;;;5.53;2.42;;;;;;;26.48;93.51;98927.59;4433088;32;20038;-73
2022/07/04 10:23:55;;;;;;;3.62;2.60;;;;;;;26.81;86.80;98949.28;4431730;32;20038;-73
2022/07/04 10:26:23;;;;;;;10.93;2.87;;;;;;;26.72;88.94;98918.28;4429134;32;20371;-75
2022/07/04 10:28:54;;;;;;;6.75;2.78;;;;;;;26.98;92.84;98925.16;4430647;32;20073;-73
2022/07/04 10:31:21;;;;;;;;;;;;;;;26.93;79.48;98933.72;4431752;32;20075;-74
2022/07/04 10:33:49;;;;;;;3.85;3.33;;;;;;;26.75;83.14;98956.22;4429860;32;20329;-72
2022/07/04 10:36:23;;;;;;;3.25;3.00;;;;;;;26.77;86.20;98953.94;4417339;32;20044;-72
2022/07/04 10:38:51;;;;;;;11.25;3.42;;;;;;;26.67;87.93;98959.22;4434268;32;20367;-73
2022/07/04 10:41:20;;;;;;;6.07;3.25;;;;;;;26.70;89.12;98948.22;4433405;32;20424;-75
2022/07/04 10:43:56;;;;;;;9.18;3.03;;;;;;;26.89;86.33;98949.44;4433566;32;20038;-73
2022/07/04 10:46:53;;;;;;;4.57;3.35;;;;;;;26.82;84.92;98939.84;4432854;32;20064;-73
2022/07/04 10:49:22;;;;;;;8.23;2.42;;;;;;;26.83;82.51;98949.69;4432930;32;20038;-73
2022/07/04 10:51:54;;;;;;;3.28;3.00;;;;;;;26.52;80.16;98913.84;4432493;32;20082;-73
2022/07/04 10:54:35;;;;;;;5.95;2.78;;;;;;;26.78;82.37;98905.81;4433854;32;20050;-73
2022/07/04 10:57:22;;;;;;;8.70;3.55;;;;;;;26.99;88.13;98932.28;4434087;32;20056;-73
2022/07/04 10:59:51;;;;;;;3.03;2.72;;;;;;;27.24;87.67;98898.84;4426187;32;20073;-73
2022/07/04 11:02:22;;;;;;;8.85;3.50;;;;;;;26.82;86.80;98901.16;4418722;32;20072;-73
2022/07/04 11:05:02;;;;;;;3.10;2.85;;;;;;;27.35;88.38;98936.63;4433880;32;20073;-72
2022/07/04 11:07:35;;;;;;;6.80;3.22;;;;;;;27.46;83.36;98928.53;4434205;32;20077;-73
2022/07/04 11:10:13;;;;;;;2.95;2.50;;;;;;;27.29;82.22;98923.44;4432125;32;20038;-74
2022/07/04 11:12:55;;;;;;;3.00;2.70;;;;;;;27.50;81.17;98890.69;4433292;32;20081;-73
2022/07/04 11:15:24;;;;;;;3.78;2.87;;;;;;;28.01;75.33;98917.28;4433732;32;20030;-73
2022/07/04 11:17:52;;;;;;;4.57;2.22;;;;;;;28.08;73.06;98902.78;4433529;32;20043;-74
2022/07/04 11:20:19;;;;;;;6.25;2.65;;;;;;;28.29;69.63;98926.44;4432105;32;20618;-75
2022/07/04 11:22:45;;;;;;;3.25;3.00;;;;;;;28.53;69.60;98922.44;4433478;32;20064;-73
2022/07/04 11:25:12;;;;;;;11.73;3.10;;;;;;;28.44;61.80;98861.81;4420316;32;20084;-73
2022/07/04 11:27:40;;;;;;;4.30;2.62;;;;;;;28.92;68.17;98917.47;4433253;32;20442;-73
2022/07/04 11:30:08;;;;;;;13.50;2.62;;;;;;;28.27;65.34;98888.87;4433318;32;20033;-73
2022/07/04 11:32:37;;;;;;;17.80;2.47;;;;;;;28.59;72.31;98921.81;4432624;32;20060;-73
2022/07/04 11:35:05;;;;;;;4.28;2.70;;;;;;;28.25;77.52;98890.41;4417919;32;20387;-72
2022/07/04 11:37:32;;;;;;;3.33;2.12;;;;;;;28.37;71.63;98914.28;4402095;32;20027;-75
2022/07/04 11:45:53;;;;;;;9.55;2.62;;;;;;;27.60;64.30;98943.78;4417866;32;20080;-73
2022/07/04 11:48:27;;;;;;;3.60;2.33;;;;;;;27.83;67.95;98941.84;4404897;32;20078;-72